Time;durP1;ratioP1;P1;durP2;ratioP2;P2;SDS_P1;SDS_P2;PMS_P1;PMS_P2;Temp;Humidity;BMP_temperature;BMP_pressure;BME280_temperature;BME280_humidity;BME280_pressure;Samples;Min_cycle;Max_cycle;Signal;HPM_P1;HPM_P2
2023/06/28 00:00:23;;;;;;;;;;;23.70;69.00;;;;;;5011090;28;89081;-45
2023/06/28 00:02:49;;;;;;;;;;;23.70;69.10;;;;;;5011711;28;87252;-46
2023/06/28 00:05:14;;;;;;;;;;;23.70;69.10;;;;;;5011169;28;87010;-44
2023/06/28 00:07:40;;;;;;;;;;;23.60;69.00;;;;;;5014200;28;87590;-44
2023/06/28 00:10:05;;;;;;;;;;;23.60;69.00;;;;;;5009510;28;88020;-45
2023/06/28 00:12:32;;;;;;;;;;;23.70;69.10;;;;;;5011517;28;88332;-44
2023/06/28 00:14:57;;;;;;;;;;;23.60;69.00;;;;;;5008239;28;88057;-44
2023/06/28 00:17:27;;;;;;;;;;;23.60;69.10;;;;;;5009456;28;87422;-44
2023/06/28 00:20:00;;;;;;;;;;;23.60;69.00;;;;;;5011466;28;88928;-44
2023/06/28 00:22:29;;;;;;;;;;;23.60;69.10;;;;;;5011078;28;90875;-45
2023/06/28 00:24:55;;;;;;;;;;;23.60;69.00;;;;;;5013230;28;87113;-48
2023/06/28 00:27:21;;;;;;;;;;;23.60;69.10;;;;;;5015376;28;87940;-44
2023/06/28 00:29:46;;;;;;;;;;;23.50;69.00;;;;;;5016828;28;87319;-43
2023/06/28 00:32:12;;;;;;;;;;;23.50;69.00;;;;;;5011524;28;88098;-44
2023/06/28 00:34:37;;;;;;;;;;;23.50;68.90;;;;;;5012761;28;88720;-44
2023/06/28 00:37:03;;;;;;;;;;;23.50;69.00;;;;;;5014581;28;87137;-44
2023/06/28 00:39:28;;;;;;;;;;;23.50;69.00;;;;;;5009965;28;90662;-44
2023/06/28 00:41:55;;;;;;;;;;;23.50;69.00;;;;;;5014031;28;88123;-45
2023/06/28 00:44:20;;;;;;;;;;;23.50;69.10;;;;;;5012446;28;87764;-46
2023/06/28 00:46:47;;;;;;;;;;;23.40;69.00;;;;;;5010856;28;87412;-44
2023/06/28 00:49:13;;;;;;;;;;;23.40;69.00;;;;;;5013981;28;87843;-44
2023/06/28 00:51:39;;;;;;;;;;;23.40;69.20;;;;;;5014904;28;86387;-45
2023/06/28 00:54:05;;;;;;;;;;;23.40;68.90;;;;;;5013947;28;88153;-44
2023/06/28 00:56:31;;;;;;;;;;;23.40;69.10;;;;;;5011657;28;87021;-44
2023/06/28 00:58:56;;;;;;;;;;;23.30;69.00;;;;;;5015096;28;87972;-47
2023/06/28 01:01:23;;;;;;;;;;;23.40;69.10;;;;;;5005827;28;88385;-44
2023/06/28 01:03:50;;;;;;;;;;;23.40;69.00;;;;;;5007455;28;87443;-44
2023/06/28 01:06:16;;;;;;;;;;;23.30;69.00;;;;;;5015495;28;87400;-44
2023/06/28 01:08:43;;;;;;;;;;;23.30;69.00;;;;;;5011773;28;88030;-44
2023/06/28 01:11:09;;;;;;;;;;;23.30;69.10;;;;;;5015068;28;87154;-47
2023/06/28 01:13:35;;;;;;;;;;;23.30;69.00;;;;;;5014572;28;87444;-46
2023/06/28 01:16:01;;;;;;;;;;;23.30;69.00;;;;;;5011885;28;86555;-44
2023/06/28 01:18:27;;;;;;;;;;;23.20;69.70;;;;;;5014711;28;87518;-44
2023/06/28 01:20:55;;;;;;;;;;;23.20;69.10;;;;;;5011850;28;88147;-46
2023/06/28 01:23:25;;;;;;;;;;;23.20;69.20;;;;;;5014115;28;88472;-45
2023/06/28 01:25:51;;;;;;;;;;;23.20;69.10;;;;;;5011131;28;87535;-44
2023/06/28 01:28:19;;;;;;;;;;;23.20;69.10;;;;;;5014586;28;87919;-45
2023/06/28 01:30:48;;;;;;;;;;;23.10;69.20;;;;;;5011638;28;87203;-44
2023/06/28 01:33:17;;;;;;;;;;;23.10;69.10;;;;;;5012473;28;89027;-45
2023/06/28 01:35:42;;;;;;;;;;;23.10;69.10;;;;;;5006651;28;87058;-46
2023/06/28 01:38:08;;;;;;;;;;;23.00;69.00;;;;;;5007657;28;87347;-43
2023/06/28 01:40:36;;;;;;;;;;;23.00;69.00;;;;;;5007500;28;88974;-44
2023/06/28 01:43:06;;;;;;;;;;;23.10;69.20;;;;;;5011256;28;87002;-44
2023/06/28 01:45:34;;;;;;;;;;;23.00;69.10;;;;;;5007503;28;88053;-46
2023/06/28 01:48:01;;;;;;;;;;;23.10;69.00;;;;;;5013372;28;89150;-46
2023/06/28 01:50:27;;;;;;;;;;;23.00;69.00;;;;;;5011461;28;87091;-45
2023/06/28 01:52:52;;;;;;;;;;;23.00;69.00;;;;;;5014836;28;87541;-44
2023/06/28 01:55:18;;;;;;;;;;;23.00;69.10;;;;;;5011348;28;88099;-44
2023/06/28 01:57:45;;;;;;;;;;;23.00;69.00;;;;;;5011404;28;87098;-47
2023/06/28 02:00:11;;;;;;;;;;;23.00;69.00;;;;;;5014444;28;88059;-45
2023/06/28 02:02:36;;;;;;;;;;;22.90;69.00;;;;;;5010349;28;87171;-45
2023/06/28 02:05:02;;;;;;;;;;;22.90;69.00;;;;;;5014922;28;86935;-45
2023/06/28 02:07:27;;;;;;;;;;;22.90;69.00;;;;;;5011188;28;88064;-46
2023/06/28 02:09:53;;;;;;;;;;;22.90;69.00;;;;;;5011732;28;87414;-46
2023/06/28 02:12:18;;;;;;;;;;;22.80;69.00;;;;;;5013098;28;88016;-45
2023/06/28 02:14:44;;;;;;;;;;;22.80;69.00;;;;;;5011907;28;88161;-49
2023/06/28 02:17:15;;;;;;;;;;;22.80;69.00;;;;;;5015553;28;87156;-44
2023/06/28 02:19:41;;;;;;;;;;;22.80;69.00;;;;;;5011467;28;87256;-44
2023/06/28 02:22:06;;;;;;;;;;;22.80;69.00;;;;;;5013022;28;87042;-46
2023/06/28 02:24:32;;;;;;;;;;;22.70;69.00;;;;;;5010801;28;87811;-47
2023/06/28 02:26:57;;;;;;;;;;;22.70;69.00;;;;;;5012083;28;89509;-49
2023/06/28 02:29:23;;;;;;;;;;;22.70;69.00;;;;;;5013087;28;86247;-45
2023/06/28 02:31:49;;;;;;;;;;;22.70;69.00;;;;;;5012861;28;87018;-49
2023/06/28 02:34:14;;;;;;;;;;;22.70;69.00;;;;;;5010484;28;89222;-48
2023/06/28 02:36:39;;;;;;;;;;;22.70;69.00;;;;;;5012536;28;88067;-48
2023/06/28 02:39:05;;;;;;;;;;;22.70;69.00;;;;;;5013388;28;88415;-46
2023/06/28 02:41:31;;;;;;;;;;;22.70;69.00;;;;;;5010719;28;87691;-51
2023/06/28 02:43:56;;;;;;;;;;;22.70;69.00;;;;;;5013541;28;87119;-49
2023/06/28 02:46:22;;;;;;;;;;;22.70;69.10;;;;;;5010273;28;88169;-50
2023/06/28 02:48:47;;;;;;;;;;;22.70;69.00;;;;;;5013444;28;87000;-47
2023/06/28 02:51:13;;;;;;;;;;;22.60;68.90;;;;;;5010603;28;87064;-45
2023/06/28 02:53:38;;;;;;;;;;;22.60;69.00;;;;;;5006455;28;87584;-44
2023/06/28 02:56:04;;;;;;;;;;;22.60;69.00;;;;;;5013741;28;86971;-44
2023/06/28 02:58:29;;;;;;;;;;;22.60;68.90;;;;;;5010628;28;87801;-44
2023/06/28 03:00:57;;;;;;;;;;;22.50;69.00;;;;;;5015485;28;89136;-44
2023/06/28 03:03:23;;;;;;;;;;;22.50;69.00;;;;;;5009787;28;89737;-45
2023/06/28 03:05:48;;;;;;;;;;;22.50;69.10;;;;;;5012863;28;88005;-44
2023/06/28 03:08:14;;;;;;;;;;;22.50;69.00;;;;;;5010662;28;87233;-44
2023/06/28 03:10:39;;;;;;;;;;;22.50;69.10;;;;;;5006467;28;88295;-45
2023/06/28 03:13:05;;;;;;;;;;;22.50;69.00;;;;;;4999338;28;88135;-43
2023/06/28 03:15:30;;;;;;;;;;;22.50;69.00;;;;;;5004181;28;87197;-44
2023/06/28 03:17:56;;;;;;;;;;;22.40;68.80;;;;;;5009977;28;88758;-44
2023/06/28 03:20:21;;;;;;;;;;;22.40;69.00;;;;;;5009213;28;88102;-46
2023/06/28 03:22:47;;;;;;;;;;;22.40;68.90;;;;;;5002214;28;87100;-44
2023/06/28 03:25:12;;;;;;;;;;;22.40;69.10;;;;;;5002453;28;88721;-44
2023/06/28 03:27:38;;;;;;;;;;;22.40;69.00;;;;;;5010982;28;87187;-45
2023/06/28 03:30:04;;;;;;;;;;;22.40;69.00;;;;;;5011515;28;87130;-44
2023/06/28 03:32:29;;;;;;;;;;;22.40;68.90;;;;;;5011070;28;88195;-46
2023/06/28 03:34:56;;;;;;;;;;;22.40;68.90;;;;;;4999122;28;88093;-44
2023/06/28 03:37:22;;;;;;;;;;;22.40;69.00;;;;;;5012898;28;87456;-45
2023/06/28 03:39:47;;;;;;;;;;;22.40;68.90;;;;;;5007096;28;88028;-45
2023/06/28 03:42:13;;;;;;;;;;;22.30;68.90;;;;;;5010321;28;86598;-44
2023/06/28 03:44:38;;;;;;;;;;;22.30;68.90;;;;;;5003884;28;88039;-44
2023/06/28 03:47:04;;;;;;;;;;;22.30;69.00;;;;;;5013575;28;87190;-45
2023/06/28 03:49:29;;;;;;;;;;;22.30;68.90;;;;;;5004703;28;88492;-44
2023/06/28 03:51:55;;;;;;;;;;;22.30;69.00;;;;;;5002438;28;87359;-44
2023/06/28 03:54:20;;;;;;;;;;;22.30;68.90;;;;;;5002068;28;87314;-44
2023/06/28 03:56:46;;;;;;;;;;;22.30;68.80;;;;;;5010364;28;87863;-44
2023/06/28 03:59:11;;;;;;;;;;;22.30;68.90;;;;;;5012563;28;88159;-45
2023/06/28 04:01:38;;;;;;;;;;;22.30;68.90;;;;;;5005560;28;87224;-44
2023/06/28 04:04:04;;;;;;;;;;;22.20;68.80;;;;;;5010118;28;89318;-45
2023/06/28 04:06:29;;;;;;;;;;;22.20;68.90;;;;;;5015609;28;86429;-45
2023/06/28 04:08:55;;;;;;;;;;;22.20;69.00;;;;;;5016011;28;87479;-44
2023/06/28 04:11:20;;;;;;;;;;;22.20;68.80;;;;;;5003346;28;88770;-44
2023/06/28 04:13:46;;;;;;;;;;;22.20;68.90;;;;;;5010321;28;88185;-45
2023/06/28 04:16:11;;;;;;;;;;;22.20;68.90;;;;;;5015209;28;88366;-44
2023/06/28 04:18:37;;;;;;;;;;;22.20;68.80;;;;;;5010728;28;88404;-44
2023/06/28 04:21:02;;;;;;;;;;;22.20;69.00;;;;;;5004456;28;87738;-45
2023/06/28 04:23:28;;;;;;;;;;;22.20;68.90;;;;;;5013815;28;87318;-45
2023/06/28 04:25:54;;;;;;;;;;;22.10;69.50;;;;;;5014650;28;87357;-44
2023/06/28 04:28:19;;;;;;;;;;;22.10;68.90;;;;;;4993990;28;88810;-47
2023/06/28 04:30:45;;;;;;;;;;;22.10;68.80;;;;;;5009427;28;87667;-44
2023/06/28 04:33:13;;;;;;;;;;;22.10;68.80;;;;;;5005262;28;87203;-44
2023/06/28 04:35:38;;;;;;;;;;;22.10;68.90;;;;;;5008726;28;89032;-44
2023/06/28 04:38:04;;;;;;;;;;;22.10;68.90;;;;;;5007710;28;89235;-44
2023/06/28 04:40:31;;;;;;;;;;;22.10;69.00;;;;;;4995238;28;87227;-45
2023/06/28 04:42:57;;;;;;;;;;;22.10;68.90;;;;;;5009023;28;87480;-44
2023/06/28 04:45:25;;;;;;;;;;;22.10;68.90;;;;;;5015324;28;88268;-45
2023/06/28 04:47:52;;;;;;;;;;;22.10;69.00;;;;;;5009928;28;87547;-45
2023/06/28 04:50:18;;;;;;;;;;;22.10;69.00;;;;;;5000506;28;89802;-44
2023/06/28 04:52:43;;;;;;;;;;;22.10;68.90;;;;;;5007988;28;87434;-45
2023/06/28 04:55:09;;;;;;;;;;;22.10;69.00;;;;;;5012931;28;87500;-45
2023/06/28 04:57:34;;;;;;;;;;;22.10;69.00;;;;;;5005765;28;88254;-47
2023/06/28 05:00:00;;;;;;;;;;;22.10;68.90;;;;;;5002752;28;87333;-44
2023/06/28 05:02:26;;;;;;;;;;;22.10;68.90;;;;;;5010946;28;88006;-45
2023/06/28 05:04:51;;;;;;;;;;;22.10;69.00;;;;;;5014121;28;88290;-44
2023/06/28 05:07:17;;;;;;;;;;;22.10;69.00;;;;;;5007321;28;88027;-44
2023/06/28 05:09:42;;;;;;;;;;;22.00;69.00;;;;;;5007842;28;87814;-45
2023/06/28 05:12:08;;;;;;;;;;;22.10;69.10;;;;;;5013490;28;87727;-45
2023/06/28 05:14:33;;;;;;;;;;;22.10;69.00;;;;;;5013399;28;87609;-44
2023/06/28 05:16:59;;;;;;;;;;;22.00;69.70;;;;;;5005376;28;89691;-44
2023/06/28 05:19:25;;;;;;;;;;;22.00;69.20;;;;;;5007115;28;88225;-44
2023/06/28 05:21:50;;;;;;;;;;;22.00;69.20;;;;;;5012353;28;88101;-45
2023/06/28 05:24:16;;;;;;;;;;;22.00;69.20;;;;;;5012791;28;89004;-45
2023/06/28 05:26:42;;;;;;;;;;;22.00;69.20;;;;;;5003698;28;88137;-44
2023/06/28 05:29:07;;;;;;;;;;;21.90;69.30;;;;;;5005869;28;89870;-45
2023/06/28 05:31:33;;;;;;;;;;;21.90;69.30;;;;;;5014531;28;87162;-45
2023/06/28 05:33:58;;;;;;;;;;;21.90;69.30;;;;;;5008194;28;90922;-45
2023/06/28 05:36:24;;;;;;;;;;;21.90;69.30;;;;;;5005895;28;88898;-44
2023/06/28 05:38:49;;;;;;;;;;;21.90;69.40;;;;;;4999639;28;87228;-44
2023/06/28 05:41:16;;;;;;;;;;;21.90;69.40;;;;;;5010598;28;87182;-45
2023/06/28 05:43:42;;;;;;;;;;;21.90;69.30;;;;;;5014140;28;87902;-44
2023/06/28 05:46:08;;;;;;;;;;;21.90;69.30;;;;;;5004410;28;87110;-44
2023/06/28 05:48:33;;;;;;;;;;;21.90;69.40;;;;;;5009478;28;87457;-45
2023/06/28 05:50:59;;;;;;;;;;;21.90;69.40;;;;;;5014270;28;89009;-46
2023/06/28 05:53:25;;;;;;;;;;;21.90;69.40;;;;;;5013333;28;88401;-45
2023/06/28 05:55:50;;;;;;;;;;;21.90;69.30;;;;;;5005449;28;88548;-44
2023/06/28 05:58:16;;;;;;;;;;;21.90;69.20;;;;;;5004313;28;87462;-44
2023/06/28 06:00:44;;;;;;;;;;;22.00;69.30;;;;;;5013032;28;88688;-46
2023/06/28 06:03:10;;;;;;;;;;;22.00;69.40;;;;;;5008554;28;88043;-45
2023/06/28 06:05:38;;;;;;;;;;;22.00;69.30;;;;;;5005947;28;88648;-45
2023/06/28 06:08:04;;;;;;;;;;;22.00;69.30;;;;;;5011873;28;87305;-44
2023/06/28 06:10:30;;;;;;;;;;;22.00;69.30;;;;;;5012643;28;87782;-44
2023/06/28 06:12:55;;;;;;;;;;;22.00;69.30;;;;;;5009354;28;87160;-44
2023/06/28 06:15:21;;;;;;;;;;;22.00;69.30;;;;;;5006861;28;89226;-44
2023/06/28 06:17:46;;;;;;;;;;;22.00;69.30;;;;;;5008749;28;87146;-45
2023/06/28 06:20:15;;;;;;;;;;;22.00;69.30;;;;;;5011424;28;87686;-46
2023/06/28 06:22:43;;;;;;;;;;;22.00;69.40;;;;;;5005987;28;88163;-46
2023/06/28 06:25:09;;;;;;;;;;;22.00;69.40;;;;;;5006672;28;87299;-44
2023/06/28 06:27:35;;;;;;;;;;;22.00;69.40;;;;;;5007201;28;87334;-45
2023/06/28 06:30:01;;;;;;;;;;;22.00;69.40;;;;;;5013867;28;87151;-46
2023/06/28 06:32:26;;;;;;;;;;;22.00;69.40;;;;;;5006554;28;88121;-44
2023/06/28 06:34:53;;;;;;;;;;;22.00;69.40;;;;;;5006574;28;87401;-46
2023/06/28 06:37:19;;;;;;;;;;;22.00;69.40;;;;;;5010438;28;87184;-45
2023/06/28 06:39:44;;;;;;;;;;;22.10;69.50;;;;;;5010829;28;88410;-44
2023/06/28 06:42:10;;;;;;;;;;;22.00;69.50;;;;;;4998586;28;88698;-47
2023/06/28 06:44:36;;;;;;;;;;;22.00;69.50;;;;;;5007512;28;87450;-45
2023/06/28 06:47:02;;;;;;;;;;;22.00;69.50;;;;;;5010217;28;87322;-46
2023/06/28 06:49:27;;;;;;;;;;;22.00;69.50;;;;;;5007024;28;88074;-44
2023/06/28 06:51:53;;;;;;;;;;;22.00;69.60;;;;;;5007427;28;88289;-44
2023/06/28 06:54:19;;;;;;;;;;;22.00;69.60;;;;;;4998139;28;89199;-46
2023/06/28 06:56:44;;;;;;;;;;;22.00;69.60;;;;;;5015854;28;88623;-48
2023/06/28 06:59:10;;;;;;;;;;;22.00;69.60;;;;;;5009157;28;87290;-45
2023/06/28 07:01:35;;;;;;;;;;;22.00;69.60;;;;;;5000119;28;88462;-46
2023/06/28 07:04:01;;;;;;;;;;;22.00;69.80;;;;;;5011680;28;88110;-44
2023/06/28 07:06:26;;;;;;;;;;;22.00;69.80;;;;;;5010877;28;88290;-45
2023/06/28 07:08:52;;;;;;;;;;;22.00;69.80;;;;;;5009059;28;88167;-45
2023/06/28 07:11:17;;;;;;;;;;;22.00;70.30;;;;;;5000619;28;87866;-46
2023/06/28 07:13:43;;;;;;;;;;;22.00;69.70;;;;;;5006150;28;87714;-44
2023/06/28 07:16:08;;;;;;;;;;;22.00;69.80;;;;;;5011156;28;88289;-45
2023/06/28 07:18:34;;;;;;;;;;;22.00;69.70;;;;;;5007401;28;87121;-44
2023/06/28 07:20:59;;;;;;;;;;;22.00;69.80;;;;;;4998748;28;87977;-44
2023/06/28 07:23:25;;;;;;;;;;;22.00;69.80;;;;;;5008767;28;87232;-45
2023/06/28 07:25:51;;;;;;;;;;;22.00;69.90;;;;;;5010476;28;87439;-45
2023/06/28 07:28:16;;;;;;;;;;;22.00;69.90;;;;;;5002100;28;89203;-44
2023/06/28 07:30:55;;;;;;;;;;;22.00;69.90;;;;;;5003664;28;89015;-44
2023/06/28 07:33:21;;;;;;;;;;;22.00;70.00;;;;;;5013449;28;88876;-44
2023/06/28 07:35:47;;;;;;;;;;;21.90;70.00;;;;;;5013927;28;87881;-44
2023/06/28 07:38:12;;;;;;;;;;;22.00;70.00;;;;;;5014728;28;87183;-46
2023/06/28 07:40:38;;;;;;;;;;;22.00;70.00;;;;;;5013536;28;88205;-45
2023/06/28 07:43:03;;;;;;;;;;;22.00;69.90;;;;;;5012434;28;87128;-43
2023/06/28 07:45:29;;;;;;;;;;;22.00;70.00;;;;;;5016421;28;87591;-45
2023/06/28 07:47:54;;;;;;;;;;;22.00;70.00;;;;;;5013372;28;88235;-43
2023/06/28 07:50:22;;;;;;;;;;;22.00;70.00;;;;;;5014495;28;87208;-43
2023/06/28 07:52:47;;;;;;;;;;;22.00;70.00;;;;;;5012592;28;88061;-42
2023/06/28 07:55:13;;;;;;;;;;;22.00;70.00;;;;;;5016288;28;87714;-43
2023/06/28 07:57:38;;;;;;;;;;;22.00;70.00;;;;;;5012320;28;87116;-44
2023/06/28 08:00:04;;;;;;;;;;;22.00;70.00;;;;;;5015069;28;87133;-43
2023/06/28 08:02:30;;;;;;;;;;;22.00;70.00;;;;;;5008399;28;87098;-43
2023/06/28 08:04:58;;;;;;;;;;;22.00;70.10;;;;;;5016194;28;87587;-44
2023/06/28 08:07:24;;;;;;;;;;;22.00;70.00;;;;;;5012179;28;88544;-42
2023/06/28 08:09:50;;;;;;;;;;;22.00;70.00;;;;;;5016785;28;86717;-43
2023/06/28 08:12:15;;;;;;;;;;;22.00;70.00;;;;;;5011716;28;88353;-43
2023/06/28 08:14:41;;;;;;;;;;;22.00;70.10;;;;;;5015332;28;88171;-43
2023/06/28 08:17:06;;;;;;;;;;;22.00;70.00;;;;;;5012687;28;87984;-43
2023/06/28 08:19:32;;;;;;;;;;;22.00;70.00;;;;;;5015546;28;87526;-43
2023/06/28 08:21:58;;;;;;;;;;;22.00;70.10;;;;;;5015358;28;88089;-43
2023/06/28 08:24:23;;;;;;;;;;;22.00;70.20;;;;;;5013912;28;89519;-44
2023/06/28 08:26:49;;;;;;;;;;;22.00;70.10;;;;;;5014605;28;88333;-43
2023/06/28 08:29:16;;;;;;;;;;;22.10;70.10;;;;;;5012551;28;87125;-45
2023/06/28 08:31:42;;;;;;;;;;;22.00;70.10;;;;;;5014446;28;87930;-42
2023/06/28 08:34:07;;;;;;;;;;;22.10;70.10;;;;;;5014350;28;88458;-43
2023/06/28 08:36:33;;;;;;;;;;;22.10;70.10;;;;;;5013818;28;87602;-43
2023/06/28 08:38:58;;;;;;;;;;;22.00;70.20;;;;;;5014734;28;87847;-44
2023/06/28 08:41:24;;;;;;;;;;;22.00;70.10;;;;;;5012012;28;88175;-43
2023/06/28 08:43:51;;;;;;;;;;;22.00;70.10;;;;;;5014100;28;87744;-43
2023/06/28 08:46:17;;;;;;;;;;;22.10;70.20;;;;;;5014929;28;89447;-43
2023/06/28 08:48:43;;;;;;;;;;;22.10;70.20;;;;;;5013035;28;87117;-43
2023/06/28 08:51:08;;;;;;;;;;;22.10;70.10;;;;;;5015394;28;87433;-43
2023/06/28 08:53:35;;;;;;;;;;;22.10;70.20;;;;;;5012374;28;88275;-43
2023/06/28 08:56:01;;;;;;;;;;;22.10;70.20;;;;;;5015694;28;87080;-43
2023/06/28 08:58:28;;;;;;;;;;;22.10;70.30;;;;;;5012193;28;87497;-43
2023/06/28 09:00:53;;;;;;;;;;;22.10;70.20;;;;;;5015638;28;88026;-42
2023/06/28 09:03:20;;;;;;;;;;;22.10;70.20;;;;;;5012160;28;86996;-42
2023/06/28 09:05:45;;;;;;;;;;;22.10;70.20;;;;;;5009985;28;88889;-43
2023/06/28 09:08:12;;;;;;;;;;;22.10;70.20;;;;;;5015513;28;87185;-43
2023/06/28 09:10:38;;;;;;;;;;;22.10;70.40;;;;;;5012118;28;87551;-44
2023/06/28 09:13:04;;;;;;;;;;;22.10;70.40;;;;;;5014319;28;88048;-43
2023/06/28 09:15:29;;;;;;;;;;;22.10;70.30;;;;;;5011971;28;87210;-44
2023/06/28 09:17:55;;;;;;;;;;;22.10;70.20;;;;;;5014938;28;88891;-43
2023/06/28 09:20:21;;;;;;;;;;;22.10;70.30;;;;;;5012025;28;88142;-42
2023/06/28 09:22:59;;;;;;;;;;;22.10;70.40;;;;;;5015039;28;86348;-43
2023/06/28 09:25:25;;;;;;;;;;;22.10;70.50;;;;;;5008338;28;88238;-43
2023/06/28 09:27:51;;;;;;;;;;;22.10;70.40;;;;;;5013364;28;89326;-43
2023/06/28 09:30:17;;;;;;;;;;;22.10;70.40;;;;;;5014989;28;88404;-42
2023/06/28 09:32:45;;;;;;;;;;;22.10;70.30;;;;;;5007056;28;89817;-43
2023/06/28 09:35:11;;;;;;;;;;;22.10;70.40;;;;;;5007477;28;87200;-44
2023/06/28 09:37:38;;;;;;;;;;;22.10;70.40;;;;;;5015111;28;89220;-43
2023/06/28 09:40:05;;;;;;;;;;;22.20;70.40;;;;;;5010490;28;89708;-43
2023/06/28 09:42:31;;;;;;;;;;;22.20;70.30;;;;;;5007214;28;87233;-43
2023/06/28 09:44:57;;;;;;;;;;;22.20;70.30;;;;;;5011069;28;87641;-42
2023/06/28 09:47:34;;;;;;;;;;;22.20;70.30;;;;;;5017909;28;86951;-43
2023/06/28 09:50:03;;;;;;;;;;;22.20;70.40;;;;;;5009234;28;87227;-44
2023/06/28 09:52:34;;;;;;;;;;;22.20;70.40;;;;;;5013832;28;88637;-43
2023/06/28 09:55:00;;;;;;;;;;;22.20;70.30;;;;;;5011918;28;88006;-43
2023/06/28 09:57:26;;;;;;;;;;;22.30;70.30;;;;;;5013613;28;87538;-44
2023/06/28 09:59:52;;;;;;;;;;;22.30;70.30;;;;;;5010235;28;87105;-43
2023/06/28 10:02:20;;;;;;;;;;;22.30;70.40;;;;;;5012019;28;87161;-43
2023/06/28 10:04:46;;;;;;;;;;;22.30;70.30;;;;;;5013568;28;87525;-43
2023/06/28 10:07:12;;;;;;;;;;;22.30;70.30;;;;;;5011800;28;87446;-43
2023/06/28 10:09:38;;;;;;;;;;;22.30;70.30;;;;;;5016607;28;87160;-44
2023/06/28 10:12:10;;;;;;;;;;;22.30;70.30;;;;;;5011979;28;87393;-45
2023/06/28 10:14:38;;;;;;;;;;;22.30;70.40;;;;;;5012413;28;87302;-43
2023/06/28 10:17:04;;;;;;;;;;;22.40;70.50;;;;;;5012501;28;87882;-43
2023/06/28 10:19:30;;;;;;;;;;;22.30;70.40;;;;;;5011964;28;90273;-44
2023/06/28 10:21:56;;;;;;;;;;;22.40;70.50;;;;;;5012088;28;87172;-42
2023/06/28 10:24:21;;;;;;;;;;;22.40;70.60;;;;;;5013565;28;87430;-43
2023/06/28 10:26:48;;;;;;;;;;;22.40;70.50;;;;;;5011264;28;89293;-44
2023/06/28 10:29:14;;;;;;;;;;;22.30;70.60;;;;;;5011546;28;87086;-44
2023/06/28 10:31:39;;;;;;;;;;;22.40;70.50;;;;;;5016313;28;87200;-43
2023/06/28 10:34:05;;;;;;;;;;;22.40;70.50;;;;;;5011297;28;87316;-43
2023/06/28 10:36:31;;;;;;;;;;;22.40;70.50;;;;;;5014634;28;87375;-43
2023/06/28 10:38:56;;;;;;;;;;;22.40;70.40;;;;;;5010451;28;88172;-45
2023/06/28 10:41:24;;;;;;;;;;;22.40;70.50;;;;;;5014000;28;87191;-45
2023/06/28 10:44:00;;;;;;;;;;;22.50;70.50;;;;;;5006372;28;87992;-43
2023/06/28 10:46:26;;;;;;;;;;;22.50;71.10;;;;;;5010729;28;88202;-43
2023/06/28 10:48:56;;;;;;;;;;;22.50;70.30;;;;;;5012627;28;87441;-43
2023/06/28 10:51:22;;;;;;;;;;;22.50;70.40;;;;;;5011476;28;87090;-44
2023/06/28 10:54:05;;;;;;;;;;;22.50;70.40;;;;;;5015332;28;88012;-46
2023/06/28 10:56:49;;;;;;;;;;;22.50;70.30;;;;;;5013755;28;87469;-43
2023/06/28 10:59:15;;;;;;;;;;;22.50;70.30;;;;;;5007949;28;88188;-44
2023/06/28 11:01:49;;;;;;;;;;;22.50;70.40;;;;;;5012410;28;86570;-45
2023/06/28 11:04:16;;;;;;;;;;;22.50;70.40;;;;;;5011320;28;88075;-44
2023/06/28 11:06:41;;;;;;;;;;;22.50;70.30;;;;;;5012208;28;89442;-44
2023/06/28 11:09:14;;;;;;;;;;;22.50;70.40;;;;;;5010639;28;88775;-43
2023/06/28 11:12:00;;;;;;;;;;;22.50;70.40;;;;;;5012854;28;88321;-46
2023/06/28 11:14:25;;;;;;;;;;;22.60;70.40;;;;;;5006826;28;89318;-43
2023/06/28 11:16:52;;;;;;;;;;;22.60;70.40;;;;;;5014595;28;87012;-44
2023/06/28 11:19:22;;;;;;;;;;;22.50;70.30;;;;;;5011785;28;89490;-45
2023/06/28 11:21:54;;;;;;;;;;;22.50;70.30;;;;;;5011239;28;87164;-47
2023/06/28 11:24:25;;;;;;;;;;;22.60;70.30;;;;;;5011224;28;87502;-46
2023/06/28 11:26:51;;;;;;;;;;;22.60;70.10;;;;;;5012900;28;87271;-45
2023/06/28 11:29:17;;;;;;;;;;;22.70;70.20;;;;;;5009049;28;87158;-45
2023/06/28 11:31:46;;;;;;;;;;;22.70;70.10;;;;;;5010663;28;87601;-42
2023/06/28 11:34:13;;;;;;;;;;;22.70;70.10;;;;;;5010944;28;89113;-42
2023/06/28 11:36:39;;;;;;;;;;;22.60;70.20;;;;;;5010203;28;87193;-43
2023/06/28 11:39:06;;;;;;;;;;;22.60;70.10;;;;;;5015044;28;86921;-42
2023/06/28 11:41:35;;;;;;;;;;;22.70;70.30;;;;;;5010036;28;87621;-44
2023/06/28 11:44:02;;;;;;;;;;;22.70;70.20;;;;;;5008591;28;87679;-43
2023/06/28 11:46:29;;;;;;;;;;;22.70;70.20;;;;;;5012505;28;88044;-44
2023/06/28 11:48:56;;;;;;;;;;;22.70;70.20;;;;;;5010469;28;87364;-43
2023/06/28 11:51:23;;;;;;;;;;;22.70;70.10;;;;;;5012882;28;87447;-44
2023/06/28 11:53:49;;;;;;;;;;;22.70;70.10;;;;;;5009657;28;89644;-43
2023/06/28 11:56:14;;;;;;;;;;;22.70;70.10;;;;;;5011724;28;87023;-44
2023/06/28 11:58:40;;;;;;;;;;;22.70;70.20;;;;;;5012567;28;87996;-43
2023/06/28 12:01:18;;;;;;;;;;;22.70;70.70;;;;;;5011280;28;87542;-43
2023/06/28 12:03:43;;;;;;;;;;;22.70;70.10;;;;;;5005258;28;87504;-43
2023/06/28 12:06:10;;;;;;;;;;;22.80;70.00;;;;;;5012772;28;87971;-46
2023/06/28 12:08:40;;;;;;;;;;;22.80;70.00;;;;;;5006416;28;87473;-44
2023/06/28 12:11:10;;;;;;;;;;;22.80;70.00;;;;;;5005291;28;87459;-42
2023/06/28 12:13:35;;;;;;;;;;;22.80;69.80;;;;;;5006162;28;88174;-43
2023/06/28 12:16:11;;;;;;;;;;;22.80;69.90;;;;;;5009444;28;86399;-43
2023/06/28 12:18:52;;;;;;;;;;;22.80;69.90;;;;;;5012114;28;88347;-43
2023/06/28 12:21:18;;;;;;;;;;;22.80;69.80;;;;;;5018342;28;88126;-44
2023/06/28 12:23:43;;;;;;;;;;;22.90;69.80;;;;;;5012887;28;87981;-43
2023/06/28 12:26:10;;;;;;;;;;;22.80;69.60;;;;;;5014953;28;88220;-43
2023/06/28 12:28:36;;;;;;;;;;;22.90;69.60;;;;;;5013157;28;87142;-44
2023/06/28 12:31:01;;;;;;;;;;;22.90;69.60;;;;;;5011803;28;87412;-46
2023/06/28 12:33:27;;;;;;;;;;;22.90;69.50;;;;;;5013478;28;88375;-43
2023/06/28 12:35:55;;;;;;;;;;;22.90;69.60;;;;;;5013433;28;87736;-43
2023/06/28 12:38:23;;;;;;;;;;;22.90;69.50;;;;;;5014747;28;87507;-43
2023/06/28 12:40:48;;;;;;;;;;;23.00;69.40;;;;;;5013142;28;87431;-42
2023/06/28 12:43:15;;;;;;;;;;;23.00;69.40;;;;;;5017423;28;87144;-42
2023/06/28 12:45:41;;;;;;;;;;;23.00;69.40;;;;;;5011412;28;89568;-43
2023/06/28 12:48:07;;;;;;;;;;;23.00;69.30;;;;;;5013188;28;88042;-45
2023/06/28 12:50:34;;;;;;;;;;;23.00;69.40;;;;;;5014064;28;87423;-44
2023/06/28 12:52:59;;;;;;;;;;;23.00;69.20;;;;;;5013570;28;88110;-42
2023/06/28 12:55:25;;;;;;;;;;;23.00;69.20;;;;;;5012452;28;87154;-43
2023/06/28 12:57:50;;;;;;;;;;;23.00;69.10;;;;;;5012957;28;87544;-43
2023/06/28 13:00:16;;;;;;;;;;;23.00;69.30;;;;;;5007440;28;88129;-42
2023/06/28 13:02:41;;;;;;;;;;;23.00;69.20;;;;;;5012046;28;87094;-43
2023/06/28 13:05:07;;;;;;;;;;;23.00;69.30;;;;;;5016488;28;87607;-44
2023/06/28 13:07:33;;;;;;;;;;;23.00;69.10;;;;;;5011418;28;87059;-43
2023/06/28 13:09:58;;;;;;;;;;;23.00;69.30;;;;;;5013474;28;87493;-43
2023/06/28 13:12:24;;;;;;;;;;;23.00;69.30;;;;;;5009522;28;88965;-43
2023/06/28 13:14:49;;;;;;;;;;;23.00;69.40;;;;;;5009523;28;87669;-43
2023/06/28 13:17:15;;;;;;;;;;;23.00;69.40;;;;;;5006578;28;87535;-43
2023/06/28 13:19:40;;;;;;;;;;;23.00;69.40;;;;;;5013504;28;88156;-43
2023/06/28 13:22:06;;;;;;;;;;;23.00;69.30;;;;;;5010297;28;87609;-43
2023/06/28 13:24:31;;;;;;;;;;;23.00;69.30;;;;;;5013590;28;87646;-43
2023/06/28 13:26:57;;;;;;;;;;;23.00;69.20;;;;;;5013395;28;88086;-47
2023/06/28 13:29:23;;;;;;;;;;;23.00;69.30;;;;;;5013194;28;88080;-43
2023/06/28 13:31:49;;;;;;;;;;;23.00;69.30;;;;;;5003923;28;89563;-43
2023/06/28 13:34:14;;;;;;;;;;;22.90;69.10;;;;;;5012623;28;87173;-46
2023/06/28 13:36:41;;;;;;;;;;;23.00;69.20;;;;;;5010748;28;88874;-43
2023/06/28 13:39:06;;;;;;;;;;;23.00;69.00;;;;;;5010145;28;89480;-45
2023/06/28 13:41:32;;;;;;;;;;;23.00;69.00;;;;;;5011058;28;87533;-42
2023/06/28 13:43:57;;;;;;;;;;;23.00;69.10;;;;;;5011458;28;87622;-44
2023/06/28 13:46:23;;;;;;;;;;;23.00;69.00;;;;;;5011044;28;88209;-43
2023/06/28 13:48:48;;;;;;;;;;;23.00;69.00;;;;;;5014546;28;87175;-44
2023/06/28 13:51:14;;;;;;;;;;;23.00;69.00;;;;;;5013161;28;88163;-43
2023/06/28 13:53:39;;;;;;;;;;;23.00;69.00;;;;;;5011703;28;86355;-43
2023/06/28 13:56:05;;;;;;;;;;;23.00;69.00;;;;;;5012903;28;87025;-43
2023/06/28 13:58:31;;;;;;;;;;;23.00;69.00;;;;;;5009615;28;87934;-44
2023/06/28 14:00:56;;;;;;;;;;;23.00;69.00;;;;;;5010295;28;88163;-44
2023/06/28 14:03:25;;;;;;;;;;;23.00;68.80;;;;;;5011816;28;91351;-44
2023/06/28 14:05:51;;;;;;;;;;;23.00;69.00;;;;;;5009475;28;88092;-44
2023/06/28 14:08:17;;;;;;;;;;;23.00;68.80;;;;;;5015647;28;87690;-43
2023/06/28 14:10:42;;;;;;;;;;;23.00;68.90;;;;;;5009290;28;87619;-45